Time;durP1;ratioP1;P1;durP2;ratioP2;P2;SDS_P1;SDS_P2;PMS_P1;PMS_P2;Temp;Humidity;BMP_temperature;BMP_pressure;BME280_temperature;BME280_humidity;BME280_pressure;Samples;Min_cycle;Max_cycle;Signal;HPM_P1;HPM_P2
2021/12/17 00:05:07;;;;;;;4.45;3.40;;;18.40;67.00;;;;;;10372503;28;20091;-63
2021/12/17 00:10:17;;;;;;;5.80;3.17;;;18.40;66.90;;;;;;10372014;28;20049;-61
2021/12/17 00:15:17;;;;;;;3.80;3.17;;;18.40;67.00;;;;;;10372063;28;20066;-62
2021/12/17 00:52:03;;;;;;;4.35;2.90;;;18.40;66.80;;;;;;10371313;28;20053;-61
2021/12/17 00:57:16;;;;;;;3.95;2.90;;;18.40;66.70;;;;;;10371112;28;20499;-60
2021/12/17 01:02:22;;;;;;;4.10;2.85;;;18.40;66.90;;;;;;10371409;28;20038;-63
2021/12/17 01:07:29;;;;;;;4.32;2.63;;;18.40;66.80;;;;;;10379074;28;20038;-62
2021/12/17 01:12:30;;;;;;;3.53;2.60;;;18.40;66.80;;;;;;10379126;28;20036;-62
2021/12/17 01:17:34;;;;;;;3.97;3.03;;;18.40;66.70;;;;;;10378966;28;20030;-61
2021/12/17 01:43:48;;;;;;;3.72;2.78;;;18.40;66.70;;;;;;10367033;28;20046;-60
2021/12/17 01:59:38;;;;;;;3.90;2.72;;;18.50;66.60;;;;;;10378781;28;20037;-61
2021/12/17 02:04:39;;;;;;;3.92;3.00;;;18.40;66.70;;;;;;10377061;28;20050;-62
2021/12/17 02:31:26;;;;;;;4.03;2.70;;;18.40;66.50;;;;;;10376254;28;20046;-63
2021/12/17 02:36:30;;;;;;;4.25;2.97;;;18.40;66.50;;;;;;10375409;28;20424;-62
2021/12/17 02:46:50;;;;;;;3.97;3.00;;;18.40;66.60;;;;;;10375802;28;20623;-60
2021/12/17 02:51:53;;;;;;;5.65;3.30;;;18.40;66.50;;;;;;10375101;28;20034;-63
2021/12/17 02:56:54;;;;;;;4.35;3.25;;;18.40;66.60;;;;;;10373790;28;20038;-63
2021/12/17 03:01:56;;;;;;;4.65;3.15;;;18.40;66.60;;;;;;10375965;28;20033;-61
2021/12/17 03:06:58;;;;;;;4.25;2.90;;;18.50;66.50;;;;;;10373307;28;20042;-63
2021/12/17 03:11:58;;;;;;;4.38;3.05;;;18.40;66.50;;;;;;10373073;28;20130;-59
2021/12/17 03:17:08;;;;;;;3.75;3.03;;;18.40;66.50;;;;;;10374159;28;20116;-61
2021/12/17 03:27:27;;;;;;;4.10;3.03;;;18.50;66.50;;;;;;10374184;28;19918;-59
2021/12/17 03:32:28;;;;;;;3.70;2.50;;;18.40;66.50;;;;;;10373953;28;20045;-64
2021/12/17 03:37:29;;;;;;;3.35;2.53;;;18.40;66.50;;;;;;10373416;28;20118;-62
2021/12/17 03:42:29;;;;;;;3.22;2.45;;;18.50;66.40;;;;;;10372280;28;20030;-63
2021/12/17 03:47:30;;;;;;;4.32;2.72;;;18.50;66.40;;;;;;10373040;28;20112;-61
2021/12/17 03:52:31;;;;;;;5.63;3.17;;;18.40;66.40;;;;;;10372800;28;20060;-62
2021/12/17 03:57:32;;;;;;;3.63;2.42;;;18.40;66.40;;;;;;10372657;28;20107;-61
2021/12/17 04:02:33;;;;;;;4.05;2.60;;;18.50;66.30;;;;;;10374082;28;20105;-63
2021/12/17 04:07:34;;;;;;;4.45;2.72;;;18.40;66.30;;;;;;10372121;28;20073;-61
2021/12/17 04:12:55;;;;;;;6.18;3.38;;;18.40;66.40;;;;;;10372504;28;20040;-61
2021/12/17 04:17:58;;;;;;;3.92;2.60;;;18.40;66.30;;;;;;10371939;28;20488;-63
2021/12/17 04:22:59;;;;;;;4.53;2.75;;;18.40;66.30;;;;;;10371915;28;20036;-62
2021/12/17 04:28:00;;;;;;;3.28;2.53;;;18.40;67.00;;;;;;10371743;28;20033;-63
2021/12/17 04:33:01;;;;;;;3.58;2.47;;;18.40;66.50;;;;;;10371254;28;20050;-61
2021/12/17 04:38:04;;;;;;;3.75;2.25;;;18.50;66.30;;;;;;10369772;28;20092;-62
2021/12/17 04:59:22;;;;;;;3.95;2.42;;;18.50;66.30;;;;;;10369580;28;20037;-63
2021/12/17 05:04:26;;;;;;;3.20;2.45;;;18.40;66.30;;;;;;10369220;28;20476;-63
2021/12/17 05:09:38;;;;;;;4.05;2.72;;;18.40;66.30;;;;;;10370664;28;20034;-61
2021/12/17 05:19:59;;;;;;;4.47;3.15;;;18.40;66.30;;;;;;10367747;28;20034;-61
2021/12/17 05:24:59;;;;;;;4.22;3.08;;;18.40;66.30;;;;;;10370296;28;20026;-61
2021/12/17 05:30:00;;;;;;;3.35;2.53;;;18.40;66.30;;;;;;10369063;28;20099;-61
2021/12/17 05:35:01;;;;;;;5.22;2.75;;;18.50;66.30;;;;;;10369959;28;20125;-58
2021/12/17 05:40:02;;;;;;;3.42;2.63;;;18.40;66.30;;;;;;10370139;28;20038;-59
2021/12/17 05:45:10;;;;;;;3.00;2.20;;;18.50;66.40;;;;;;10369492;28;20054;-59
2021/12/17 05:50:11;;;;;;;4.25;2.72;;;18.50;66.30;;;;;;10371560;28;20117;-60
2021/12/17 05:55:11;;;;;;;5.35;3.03;;;18.40;66.40;;;;;;10376444;28;20036;-60
2021/12/17 06:00:14;;;;;;;4.80;3.20;;;18.50;66.70;;;;;;10378479;28;20395;-60
2021/12/17 06:05:14;;;;;;;5.60;3.20;;;18.60;66.70;;;;;;10377456;28;20045;-60
2021/12/17 06:10:16;;;;;;;6.03;3.25;;;18.70;66.30;;;;;;10376801;28;20434;-60
2021/12/17 06:15:19;;;;;;;3.78;2.55;;;18.70;67.30;;;;;;10376889;28;20096;-60
2021/12/17 06:20:24;;;;;;;7.60;2.90;;;18.80;68.30;;;;;;10374439;28;20037;-61
2021/12/17 06:25:24;;;;;;;8.15;3.53;;;18.90;68.10;;;;;;10375711;28;20030;-59
2021/12/17 06:30:25;;;;;;;7.50;3.20;;;18.80;68.00;;;;;;10381748;28;20042;-61
2021/12/17 06:35:26;;;;;;;13.02;4.20;;;18.70;69.00;;;;;;10375947;28;20034;-61
2021/12/17 06:40:27;;;;;;;12.95;3.90;;;18.70;69.00;;;;;;10374534;28;20045;-61
2021/12/17 07:01:19;;;;;;;12.85;4.43;;;18.60;69.50;;;;;;10373560;28;20038;-61
2021/12/17 07:06:48;;;;;;;17.15;4.57;;;18.60;69.50;;;;;;10374179;28;20038;-60
2021/12/17 07:17:13;;;;;;;15.65;4.43;;;18.50;69.30;;;;;;10368666;28;20426;-61
2021/12/17 07:43:10;;;;;;;11.70;5.00;;;18.10;69.90;;;;;;10371668;28;20074;-59
2021/12/17 07:48:13;;;;;;;11.80;4.03;;;18.00;70.00;;;;;;10372930;28;20044;-61
2021/12/17 07:53:15;;;;;;;15.95;5.28;;;18.10;69.90;;;;;;10372337;28;20076;-61
2021/12/17 07:58:16;;;;;;;14.00;4.45;;;18.20;69.80;;;;;;10369371;28;20483;-60
2021/12/17 08:03:16;;;;;;;14.95;4.75;;;18.30;70.40;;;;;;10373070;28;20033;-61
2021/12/17 08:08:18;;;;;;;13.15;4.75;;;18.20;69.80;;;;;;10373749;28;20030;-60
2021/12/17 08:13:25;;;;;;;22.98;5.28;;;18.20;69.80;;;;;;10372175;28;20094;-61
2021/12/17 08:18:43;;;;;;;16.65;4.38;;;18.20;70.20;;;;;;10372057;28;20057;-60
2021/12/17 08:33:55;;;;;;;14.00;3.80;;;18.10;70.30;;;;;;10371304;28;20310;-59
2021/12/17 08:38:57;;;;;;;18.08;4.60;;;18.10;70.50;;;;;;10371749;28;20455;-59
2021/12/17 08:43:58;;;;;;;17.52;4.00;;;18.00;70.60;;;;;;10370449;28;20041;-60
2021/12/17 08:48:59;;;;;;;13.10;4.63;;;18.00;70.70;;;;;;10371144;28;20030;-61
2021/12/17 08:54:00;;;;;;;26.73;6.60;;;18.00;70.70;;;;;;10371367;28;20445;-60
2021/12/17 08:59:06;;;;;;;30.85;5.60;;;17.90;72.30;;;;;;10371516;28;20088;-60
2021/12/17 09:04:06;;;;;;;39.42;7.65;;;17.90;72.00;;;;;;10372483;28;20038;-59
2021/12/17 09:09:08;;;;;;;23.27;6.32;;;17.90;72.50;;;;;;10371201;28;20026;-61
2021/12/17 09:14:09;;;;;;;19.27;5.00;;;18.00;71.10;;;;;;10369821;28;20176;-60
2021/12/17 09:19:10;;;;;;;23.50;6.43;;;18.00;71.10;;;;;;10370746;28;20594;-61
2021/12/17 09:24:11;;;;;;;25.58;5.63;;;18.00;70.60;;;;;;10371021;28;20041;-61
2021/12/17 09:29:12;;;;;;;24.90;5.38;;;18.00;70.70;;;;;;10377474;28;20029;-61
2021/12/17 09:34:13;;;;;;;25.25;4.32;;;18.10;70.00;;;;;;10378598;28;20133;-61
2021/12/17 09:39:14;;;;;;;27.63;5.88;;;18.10;69.60;;;;;;10378776;28;20045;-61
2021/12/17 09:44:15;;;;;;;18.20;4.68;;;18.20;69.40;;;;;;10378331;28;20026;-61
2021/12/17 09:49:19;;;;;;;17.88;4.55;;;18.20;69.30;;;;;;10378075;28;20030;-60
2021/12/17 09:54:20;;;;;;;14.85;4.15;;;18.10;69.30;;;;;;10377413;28;20026;-61
2021/12/17 09:59:22;;;;;;;13.80;4.43;;;18.10;69.50;;;;;;10376749;28;20026;-61
2021/12/17 10:04:29;;;;;;;15.07;4.22;;;18.10;69.30;;;;;;10376553;28;20034;-60
2021/12/17 10:09:34;;;;;;;13.93;3.90;;;18.20;68.90;;;;;;10377369;28;20037;-61
2021/12/17 10:14:34;;;;;;;11.10;3.35;;;18.20;68.80;;;;;;10376698;28;20034;-61
2021/12/17 10:19:50;;;;;;;14.60;3.72;;;18.20;68.70;;;;;;10376750;28;20029;-61
2021/12/17 10:25:11;;;;;;;11.85;3.78;;;18.30;68.40;;;;;;10376365;28;20073;-60
2021/12/17 10:30:18;;;;;;;10.13;3.63;;;18.30;68.40;;;;;;10375228;28;20069;-61
2021/12/17 10:35:30;;;;;;;12.90;4.28;;;18.40;68.20;;;;;;10375136;28;20399;-60
2021/12/17 10:40:44;;;;;;;8.45;2.50;;;18.40;68.00;;;;;;10376054;28;20115;-60
2021/12/17 10:46:08;;;;;;;12.10;3.70;;;18.40;68.00;;;;;;10373794;28;20034;-60
2021/12/17 10:51:10;;;;;;;7.65;2.85;;;18.20;68.10;;;;;;10374461;28;20542;-60
2021/12/17 10:56:16;;;;;;;10.93;3.33;;;18.30;68.20;;;;;;10374850;28;20033;-61
2021/12/17 11:01:16;;;;;;;10.52;3.88;;;18.40;68.30;;;;;;10375327;28;20128;-61
2021/12/17 11:06:21;;;;;;;11.98;2.92;;;18.40;69.00;;;;;;10375019;28;20030;-61
2021/12/17 11:11:33;;;;;;;12.43;3.10;;;18.30;69.70;;;;;;10374477;28;20031;-61
2021/12/17 11:16:39;;;;;;;16.13;3.78;;;18.30;69.50;;;;;;10373827;28;20073;-60
2021/12/17 11:21:39;;;;;;;21.65;5.03;;;18.30;70.60;;;;;;10372512;28;20535;-62
2021/12/17 11:26:41;;;;;;;13.43;3.80;;;18.30;70.50;;;;;;10374366;28;20173;-61
2021/12/17 11:31:42;;;;;;;13.57;2.97;;;18.40;70.60;;;;;;10373858;28;20139;-61
2021/12/17 11:36:43;;;;;;;11.05;3.47;;;18.40;70.70;;;;;;10373285;28;20104;-61
2021/12/17 11:42:32;;;;;;;7.70;2.65;;;18.40;70.90;;;;;;10373414;28;20567;-61
2021/12/17 11:47:34;;;;;;;15.23;3.25;;;18.40;70.90;;;;;;10375883;28;20137;-61
2021/12/17 11:52:34;;;;;;;10.32;3.38;;;18.40;71.20;;;;;;10372888;28;20120;-62
2021/12/17 11:57:42;;;;;;;11.77;3.45;;;18.30;70.70;;;;;;10373092;28;20455;-61
2021/12/17 12:02:51;;;;;;;15.90;3.25;;;18.40;70.70;;;;;;10374492;28;20080;-61
2021/12/17 12:07:51;;;;;;;13.30;3.38;;;18.30;70.70;;;;;;10371237;28;20115;-61
2021/12/17 12:12:52;;;;;;;12.07;3.40;;;18.30;70.90;;;;;;10372750;28;20046;-61
2021/12/17 12:18:05;;;;;;;21.45;3.15;;;18.40;70.70;;;;;;10372565;28;20439;-61
2021/12/17 12:23:32;;;;;;;18.10;2.47;;;18.40;70.40;;;;;;10371984;28;20095;-62
2021/12/17 12:28:56;;;;;;;14.07;2.75;;;18.10;70.70;;;;;;10371820;28;20377;-60
2021/12/17 12:34:10;;;;;;;15.10;2.70;;;18.10;71.10;;;;;;10369042;28;20146;-61
2021/12/17 12:39:24;;;;;;;12.35;2.67;;;18.10;70.80;;;;;;10371172;28;20052;-60
2021/12/17 12:44:39;;;;;;;26.48;3.38;;;18.00;71.00;;;;;;10371956;28;20029;-61
2021/12/17 12:49:54;;;;;;;19.95;4.90;;;18.10;71.20;;;;;;10371331;28;20060;-61
2021/12/17 12:55:02;;;;;;;20.10;3.22;;;18.00;71.20;;;;;;10369688;28;20037;-60
2021/12/17 13:00:09;;;;;;;32.63;5.35;;;17.90;71.40;;;;;;10377759;28;20296;-60
2021/12/17 13:05:11;;;;;;;21.55;4.40;;;17.90;72.30;;;;;;10379449;28;20034;-61
2021/12/17 13:10:21;;;;;;;33.03;4.45;;;18.00;71.50;;;;;;10378337;28;20444;-61
2021/12/17 13:15:45;;;;;;;31.40;4.55;;;18.00;71.60;;;;;;10378400;28;20038;-61
2021/12/17 13:26:26;;;;;;;37.13;5.18;;;17.90;71.30;;;;;;10378502;28;20566;-60
2021/12/17 13:31:52;;;;;;;28.65;4.93;;;18.00;71.40;;;;;;10377519;28;20054;-59
2021/12/17 13:37:18;;;;;;;20.50;3.70;;;18.00;71.20;;;;;;10377951;28;20108;-59
2021/12/17 13:42:32;;;;;;;24.55;4.75;;;18.10;71.00;;;;;;10353381;28;20507;-59
2021/12/17 13:47:45;;;;;;;18.40;3.13;;;18.00;71.10;;;;;;10377646;28;20046;-59
2021/12/17 13:53:05;;;;;;;17.35;4.43;;;18.00;71.10;;;;;;10376982;28;20034;-59
2021/12/17 13:58:22;;;;;;;15.10;3.53;;;17.90;71.30;;;;;;10376141;28;20120;-61
2021/12/17 14:03:33;;;;;;;10.77;3.30;;;17.90;71.90;;;;;;10380702;28;20030;-62
2021/12/17 14:08:40;;;;;;;22.55;3.13;;;17.90;72.20;;;;;;10372924;28;20041;-63
2021/12/17 14:13:42;;;;;;;13.52;2.83;;;17.90;72.10;;;;;;10375488;28;20043;-62
2021/12/17 14:18:43;;;;;;;17.15;3.33;;;17.90;71.60;;;;;;10375782;28;20545;-62
2021/12/17 14:23:44;;;;;;;11.55;3.20;;;17.90;71.90;;;;;;10374345;28;20095;-63
2021/12/17 14:28:45;;;;;;;13.95;3.10;;;18.00;72.20;;;;;;10375911;28;20030;-62
2021/12/17 14:33:57;;;;;;;14.65;2.97;;;18.10;72.10;;;;;;10375624;28;20472;-63
2021/12/17 14:39:11;;;;;;;14.60;3.13;;;18.10;72.40;;;;;;10374077;28;20166;-62
2021/12/17 15:00:26;;;;;;;;;;;18.00;72.70;;;;;;10373899;28;20030;-63
2021/12/17 15:05:30;;;;;;;10.40;2.63;;;18.10;72.20;;;;;;10384214;28;19909;-62
2021/12/17 15:10:30;;;;;;;14.63;3.47;;;18.10;72.00;;;;;;10371900;28;20184;-62
2021/12/17 15:15:38;;;;;;;15.98;3.13;;;18.10;71.90;;;;;;10374380;28;20117;-65
2021/12/17 15:20:39;;;;;;;15.90;3.47;;;18.10;72.20;;;;;;10373531;28;20403;-62
2021/12/17 15:25:41;;;;;;;18.75;3.55;;;18.00;72.50;;;;;;10373446;28;20030;-63
2021/12/17 15:30:46;;;;;;;9.88;2.60;;;18.00;72.70;;;;;;10373634;28;20034;-63
2021/12/17 15:35:49;;;;;;;21.88;3.30;;;18.00;72.80;;;;;;10372797;28;20041;-62
2021/12/17 15:40:51;;;;;;;22.52;3.58;;;18.10;72.80;;;;;;10372663;28;20523;-64
2021/12/17 15:45:53;;;;;;;20.77;3.42;;;18.00;72.80;;;;;;10372929;28;20384;-66
2021/12/17 15:50:54;;;;;;;25.50;3.80;;;18.10;73.10;;;;;;10372426;28;20042;-66
2021/12/17 15:55:55;;;;;;;30.42;4.70;;;18.10;72.70;;;;;;10372823;28;20056;-63
2021/12/17 16:00:56;;;;;;;21.08;3.92;;;18.30;77.00;;;;;;10375537;28;20042;-63
2021/12/17 16:05:57;;;;;;;17.77;3.75;;;18.30;75.90;;;;;;10367533;28;20040;-64
2021/12/17 16:21:36;;;;;;;37.97;4.20;;;18.40;74.00;;;;;;10372368;28;20285;-64
2021/12/17 16:26:36;;;;;;;23.67;5.63;;;18.20;74.10;;;;;;10370868;28;20371;-63
2021/12/17 16:31:37;;;;;;;18.48;4.15;;;18.20;74.10;;;;;;10371766;28;20053;-63
2021/12/17 16:36:41;;;;;;;24.40;4.30;;;18.00;73.40;;;;;;10370986;28;20120;-62
2021/12/17 16:41:42;;;;;;;18.33;4.32;;;18.00;72.70;;;;;;10370327;28;20045;-62
2021/12/17 16:51:53;;;;;;;21.75;4.43;;;18.30;71.10;;;;;;10368913;28;20050;-63
2021/12/17 16:56:54;;;;;;;16.30;3.45;;;18.40;70.90;;;;;;10370506;28;20041;-63
2021/12/17 17:01:54;;;;;;;11.55;3.10;;;18.60;70.40;;;;;;10374848;28;20387;-63
2021/12/17 17:06:55;;;;;;;20.80;4.50;;;18.80;69.60;;;;;;10371553;28;20026;-64
2021/12/17 17:12:03;;;;;;;14.18;3.90;;;18.80;69.80;;;;;;10369699;28;20025;-64
2021/12/17 17:17:06;;;;;;;21.48;3.63;;;18.90;70.40;;;;;;10368830;28;20295;-62
2021/12/17 17:22:06;;;;;;;17.83;3.40;;;18.90;70.50;;;;;;10351824;28;20049;-62
2021/12/17 17:27:07;;;;;;;18.60;4.63;;;19.00;70.90;;;;;;10369180;28;20040;-64
2021/12/17 17:32:08;;;;;;;24.95;4.03;;;19.00;71.60;;;;;;10369611;28;20049;-62
2021/12/17 17:37:09;;;;;;;11.48;3.72;;;19.10;71.30;;;;;;10368787;28;20499;-61
2021/12/17 17:42:09;;;;;;;13.15;3.28;;;19.10;71.90;;;;;;10370405;28;20037;-62
2021/12/17 17:47:11;;;;;;;9.77;2.90;;;19.00;72.20;;;;;;10373528;28;20141;-62
2021/12/17 17:52:12;;;;;;;12.52;3.90;;;18.90;71.70;;;;;;10376773;28;20044;-62
2021/12/17 17:57:13;;;;;;;19.85;3.30;;;18.60;72.40;;;;;;10376722;28;20117;-62
2021/12/17 18:02:15;;;;;;;8.68;2.95;;;18.60;72.60;;;;;;10381397;28;20038;-65
2021/12/17 18:07:15;;;;;;;22.15;3.67;;;18.60;72.20;;;;;;10377246;28;20053;-65
2021/12/17 18:12:16;;;;;;;11.80;2.30;;;18.50;72.50;;;;;;10376859;28;20458;-66
2021/12/17 18:17:17;;;;;;;9.32;2.47;;;18.30;72.60;;;;;;10391093;28;20391;-62
2021/12/17 18:22:18;;;;;;;13.75;2.58;;;18.20;72.60;;;;;;10376786;28;20030;-63
2021/12/17 18:27:19;;;;;;;8.70;2.03;;;18.20;72.60;;;;;;10375726;28;20041;-63
2021/12/17 18:32:20;;;;;;;10.23;2.47;;;18.10;72.50;;;;;;10372666;28;20046;-63
2021/12/17 18:37:21;;;;;;;8.25;2.05;;;18.10;72.30;;;;;;10372098;28;20096;-63
2021/12/17 18:47:40;;;;;;;11.83;2.23;;;18.10;72.50;;;;;;10373671;28;20042;-62
2021/12/17 18:52:41;;;;;;;6.68;2.05;;;18.10;72.80;;;;;;10374352;28;20069;-63
2021/12/17 18:57:42;;;;;;;9.77;1.80;;;18.00;72.80;;;;;;10374269;28;20038;-62
2021/12/17 19:02:43;;;;;;;8.48;1.45;;;17.90;72.10;;;;;;10373376;28;20045;-62
2021/12/17 19:07:43;;;;;;;10.40;2.03;;;18.10;72.00;;;;;;10373834;28;20126;-62
2021/12/17 19:12:44;;;;;;;4.00;1.42;;;18.10;71.70;;;;;;10372677;28;20042;-62
2021/12/17 19:17:45;;;;;;;7.05;1.73;;;18.10;71.70;;;;;;10372881;28;20682;-62
2021/12/17 19:22:48;;;;;;;9.02;1.65;;;18.10;71.70;;;;;;10371986;28;20045;-62
2021/12/17 19:27:50;;;;;;;9.07;2.47;;;18.00;71.80;;;;;;10371978;28;20034;-62
2021/12/17 19:32:51;;;;;;;5.28;1.42;;;18.00;72.00;;;;;;10372119;28;20049;-61
2021/12/17 19:37:52;;;;;;;4.57;1.38;;;18.00;72.00;;;;;;10373444;28;20076;-67
2021/12/17 19:42:52;;;;;;;8.45;1.33;;;18.20;72.00;;;;;;10371408;28;20049;-60
2021/12/17 19:48:12;;;;;;;8.27;1.25;;;18.30;71.70;;;;;;10372478;28;20128;-61
2021/12/17 19:53:13;;;;;;;8.18;1.33;;;18.20;71.60;;;;;;10372721;28;20037;-66
2021/12/17 19:58:14;;;;;;;7.20;1.40;;;18.20;71.90;;;;;;10372086;28;20030;-61
2021/12/17 20:03:14;;;;;;;7.93;1.90;;;18.20;71.80;;;;;;10375497;28;20130;-61
2021/12/17 20:08:18;;;;;;;9.27;1.67;;;18.10;71.60;;;;;;10371043;28;20468;-61
2021/12/17 20:13:19;;;;;;;7.85;2.25;;;18.10;71.80;;;;;;10370543;28;20137;-63
2021/12/17 20:18:20;;;;;;;8.10;1.55;;;18.00;71.80;;;;;;10371375;28;20110;-62
2021/12/17 20:23:24;;;;;;;7.00;1.58;;;18.10;71.70;;;;;;10369416;28;20045;-61
2021/12/17 20:28:26;;;;;;;3.17;1.08;;;18.20;71.40;;;;;;10369199;28;20038;-61
2021/12/17 20:33:27;;;;;;;4.53;1.15;;;18.30;71.00;;;;;;10367823;28;20064;-61
2021/12/17 20:38:28;;;;;;;7.57;2.00;;;18.40;70.60;;;;;;10370787;28;20038;-61
2021/12/17 20:43:37;;;;;;;6.32;1.63;;;18.40;70.40;;;;;;10371751;28;20048;-61
2021/12/17 20:48:38;;;;;;;4.30;1.30;;;18.40;70.20;;;;;;10371530;28;20109;-61
2021/12/17 20:53:39;;;;;;;6.07;1.40;;;18.40;70.80;;;;;;10371427;28;20132;-62
2021/12/17 20:58:40;;;;;;;5.30;1.75;;;18.40;70.40;;;;;;10371456;28;20041;-61
2021/12/17 21:03:42;;;;;;;8.00;1.25;;;18.40;70.20;;;;;;10375643;28;20211;-62
2021/12/17 21:08:44;;;;;;;4.63;1.20;;;18.40;70.20;;;;;;10371165;28;20464;-62
2021/12/17 21:13:58;;;;;;;3.30;1.60;;;18.40;70.20;;;;;;10370442;28;20092;-62
2021/12/17 21:18:58;;;;;;;4.03;1.13;;;18.50;69.80;;;;;;10370584;28;20037;-61
2021/12/17 21:24:00;;;;;;;2.33;0.90;;;18.50;69.80;;;;;;10378134;28;20399;-62
2021/12/17 21:29:02;;;;;;;4.30;1.20;;;18.50;69.60;;;;;;10377430;28;20040;-61
2021/12/17 21:34:04;;;;;;;2.95;1.02;;;18.50;69.70;;;;;;10378223;28;20089;-61
2021/12/17 21:39:05;;;;;;;3.58;1.00;;;18.50;69.50;;;;;;10377937;28;20489;-62
2021/12/17 21:44:07;;;;;;;3.80;1.20;;;18.50;69.50;;;;;;10378112;28;20045;-61
2021/12/17 21:49:08;;;;;;;2.33;1.20;;;18.50;69.60;;;;;;10377574;28;20152;-61
2021/12/17 21:54:10;;;;;;;3.65;1.05;;;18.40;69.80;;;;;;10377786;28;20029;-62
2021/12/17 21:59:10;;;;;;;2.22;0.93;;;18.40;69.60;;;;;;10377339;28;20030;-61
2021/12/17 22:04:18;;;;;;;2.33;0.98;;;18.50;69.50;;;;;;10381386;28;20121;-62
2021/12/17 22:09:19;;;;;;;2.13;0.85;;;18.40;69.50;;;;;;10377070;28;20037;-61
2021/12/17 22:14:20;;;;;;;2.13;0.70;;;18.50;69.40;;;;;;10376645;28;20045;-62
2021/12/17 22:19:22;;;;;;;4.50;0.93;;;18.50;69.30;;;;;;10375321;28;20037;-62
2021/12/17 22:24:23;;;;;;;4.10;1.17;;;18.40;69.30;;;;;;10376050;28;20113;-63
2021/12/17 22:29:25;;;;;;;1.50;0.70;;;18.40;69.30;;;;;;10374830;28;20022;-61
2021/12/17 22:34:26;;;;;;;1.70;0.50;;;18.50;69.30;;;;;;10373744;28;20065;-61
2021/12/17 22:39:27;;;;;;;2.55;1.00;;;18.50;69.20;;;;;;10374591;28;20034;-62
2021/12/17 22:44:27;;;;;;;2.90;1.10;;;18.50;69.10;;;;;;10375462;28;20395;-61
2021/12/17 22:49:29;;;;;;;3.55;0.90;;;18.50;69.00;;;;;;10375265;28;20387;-61
2021/12/17 22:54:30;;;;;;;2.47;0.68;;;18.50;68.90;;;;;;10375101;28;20109;-61
2021/12/17 22:59:31;;;;;;;1.33;0.80;;;18.50;69.10;;;;;;10375423;28;20120;-61
2021/12/17 23:04:33;;;;;;;2.58;0.68;;;18.50;68.90;;;;;;10376434;28;20491;-62
2021/12/17 23:09:44;;;;;;;2.75;0.68;;;18.50;68.90;;;;;;10373200;28;20076;-62
2021/12/17 23:14:55;;;;;;;3.58;1.15;;;18.50;68.90;;;;;;10374532;28;20258;-62
2021/12/17 23:20:00;;;;;;;2.08;0.50;;;18.50;68.70;;;;;;10374084;28;20030;-62
2021/12/17 23:25:02;;;;;;;1.73;0.73;;;18.50;68.80;;;;;;10374382;28;20121;-62
2021/12/17 23:30:04;;;;;;;1.85;0.63;;;18.50;68.70;;;;;;10373201;28;20468;-61
2021/12/17 23:35:16;;;;;;;1.77;0.80;;;18.50;68.60;;;;;;10373756;28;20033;-61
2021/12/17 23:40:17;;;;;;;2.13;0.55;;;18.50;68.70;;;;;;10373625;28;20462;-62
2021/12/17 23:45:18;;;;;;;2.03;0.88;;;18.60;68.50;;;;;;10372840;28;20057;-62
2021/12/17 23:50:19;;;;;;;1.88;1.13;;;18.50;68.60;;;;;;10372779;28;20133;-61
2021/12/17 23:55:19;;;;;;;3.03;0.52;;;18.50;68.50;;;;;;10372879;28;20037;-63
